Time;durP1;ratioP1;P1;durP2;ratioP2;P2;SDS_P1;SDS_P2;PMS_P1;PMS_P2;Temp;Humidity;BMP_temperature;BMP_pressure;BME280_temperature;BME280_humidity;BME280_pressure;Samples;Min_cycle;Max_cycle;Signal;HPM_P1;HPM_P2
2023/06/11 00:02:05;;;;;;;;;;;24.50;99.90;;;;;;5073883;28;19966;-65
2023/06/11 00:04:34;;;;;;;;;;;24.60;99.90;;;;;;5075086;28;20066;-65
2023/06/11 00:07:02;;;;;;;;;;;24.70;99.90;;;;;;5073772;28;20368;-66
2023/06/11 00:09:28;;;;;;;;;;;24.70;99.90;;;;;;5075005;28;20434;-66
2023/06/11 00:11:54;;;;;;;;;;;24.60;99.90;;;;;;5074949;28;19959;-66
2023/06/11 00:14:20;;;;;;;;;;;24.60;99.90;;;;;;5074930;28;20425;-66
2023/06/11 00:16:46;;;;;;;;;;;25.10;99.90;;;;;;5075340;28;19963;-66
2023/06/11 00:19:11;;;;;;;;;;;25.20;99.90;;;;;;5074705;28;19975;-66
2023/06/11 00:21:40;;;;;;;;;;;25.10;99.90;;;;;;5074743;28;20425;-66
2023/06/11 00:24:06;;;;;;;;;;;25.20;99.90;;;;;;5075265;28;20494;-66
2023/06/11 00:26:33;;;;;;;;;;;25.20;99.90;;;;;;5073667;28;19955;-66
2023/06/11 00:28:58;;;;;;;;;;;25.20;99.90;;;;;;5074644;28;19956;-65
2023/06/11 00:31:24;;;;;;;;;;;25.20;99.90;;;;;;5074521;28;19970;-66
2023/06/11 00:33:49;;;;;;;;;;;25.10;99.90;;;;;;5074701;28;20383;-66
2023/06/11 00:36:15;;;;;;;;;;;24.90;99.90;;;;;;5074419;28;19955;-66
2023/06/11 00:38:41;;;;;;;;;;;24.90;99.90;;;;;;5074309;28;20019;-67
2023/06/11 00:41:06;;;;;;;;;;;24.90;99.90;;;;;;5074922;28;19963;-66
2023/06/11 00:43:32;;;;;;;;;;;25.00;99.90;;;;;;5074214;28;19999;-66
2023/06/11 00:46:02;;;;;;;;;;;24.90;99.90;;;;;;5072974;28;19960;-66
2023/06/11 00:48:27;;;;;;;;;;;24.90;99.90;;;;;;5074472;28;20436;-66
2023/06/11 00:50:53;;;;;;;;;;;24.70;99.90;;;;;;5074131;28;19960;-66
2023/06/11 00:53:19;;;;;;;;;;;24.60;99.90;;;;;;5074707;28;19962;-66
2023/06/11 00:55:45;;;;;;;;;;;24.60;99.90;;;;;;5074074;28;19956;-66
2023/06/11 00:58:15;;;;;;;;;;;24.50;99.90;;;;;;5073940;28;19979;-66
2023/06/11 01:00:45;;;;;;;;;;;24.50;99.90;;;;;;5074010;28;19955;-66
2023/06/11 01:03:12;;;;;;;;;;;24.40;99.90;;;;;;5074274;28;19963;-66
2023/06/11 01:05:43;;;;;;;;;;;24.20;99.90;;;;;;5073952;28;20046;-66
2023/06/11 01:08:12;;;;;;;;;;;24.30;99.90;;;;;;5074243;28;19956;-66
2023/06/11 01:10:38;;;;;;;;;;;24.30;99.90;;;;;;5073881;28;19962;-66
2023/06/11 01:13:04;;;;;;;;;;;24.30;99.90;;;;;;5073880;28;20333;-66
2023/06/11 01:15:29;;;;;;;;;;;24.20;99.90;;;;;;5074437;28;20437;-66
2023/06/11 01:18:00;;;;;;;;;;;24.20;99.90;;;;;;5074241;28;19975;-66
2023/06/11 01:20:34;;;;;;;;;;;24.30;99.90;;;;;;5074401;28;19978;-66
2023/06/11 01:23:00;;;;;;;;;;;24.30;99.90;;;;;;5072233;28;20049;-65
2023/06/11 01:25:50;;;;;;;;;;;24.10;99.90;;;;;;5073691;28;19995;-66
2023/06/11 01:28:17;;;;;;;;;;;24.10;99.90;;;;;;5072177;28;19959;-66
2023/06/11 01:30:51;;;;;;;;;;;24.10;99.90;;;;;;5073731;28;19956;-66
2023/06/11 01:33:19;;;;;;;;;;;24.10;99.90;;;;;;5074300;28;20355;-66
2023/06/11 01:35:46;;;;;;;;;;;24.10;99.90;;;;;;5073568;28;20010;-66
2023/06/11 01:38:13;;;;;;;;;;;24.00;99.90;;;;;;5073199;28;19976;-65
2023/06/11 01:40:39;;;;;;;;;;;23.90;99.90;;;;;;5073605;28;19956;-66
2023/06/11 01:43:05;;;;;;;;;;;23.90;99.90;;;;;;5073528;28;19991;-66
2023/06/11 01:45:32;;;;;;;;;;;23.90;99.90;;;;;;5073779;28;19978;-66
2023/06/11 01:47:58;;;;;;;;;;;23.90;99.90;;;;;;5073481;28;19955;-66
2023/06/11 01:50:24;;;;;;;;;;;23.80;99.90;;;;;;5073794;28;19963;-66
2023/06/11 01:52:49;;;;;;;;;;;23.90;99.90;;;;;;5073479;28;20029;-66
2023/06/11 01:55:15;;;;;;;;;;;24.00;99.90;;;;;;5073951;28;20467;-66
2023/06/11 01:57:40;;;;;;;;;;;23.90;99.90;;;;;;5073315;28;19979;-66
2023/06/11 02:00:07;;;;;;;;;;;23.80;99.90;;;;;;5073649;28;19956;-66
2023/06/11 02:02:33;;;;;;;;;;;23.70;99.90;;;;;;5073385;28;19956;-66
2023/06/11 02:04:58;;;;;;;;;;;23.60;99.90;;;;;;5073612;28;20436;-66
2023/06/11 02:07:25;;;;;;;;;;;23.50;99.90;;;;;;5073270;28;19955;-66
2023/06/11 02:09:50;;;;;;;;;;;23.40;99.90;;;;;;5073555;28;19964;-66
2023/06/11 02:12:16;;;;;;;;;;;23.40;99.90;;;;;;5073240;28;19963;-66
2023/06/11 02:14:41;;;;;;;;;;;23.30;99.90;;;;;;5073538;28;20002;-68
2023/06/11 02:17:07;;;;;;;;;;;23.20;99.90;;;;;;5073657;28;20050;-68
2023/06/11 02:19:32;;;;;;;;;;;23.20;99.90;;;;;;5073463;28;20413;-69
2023/06/11 02:21:58;;;;;;;;;;;23.20;99.90;;;;;;5073458;28;19956;-68
2023/06/11 02:24:23;;;;;;;;;;;23.20;99.90;;;;;;5073711;28;19979;-68
2023/06/11 02:26:49;;;;;;;;;;;23.10;99.90;;;;;;5073142;28;19956;-69
2023/06/11 02:29:14;;;;;;;;;;;23.10;99.90;;;;;;5073350;28;20038;-68
2023/06/11 02:31:40;;;;;;;;;;;23.20;99.90;;;;;;5073117;28;19956;-68
2023/06/11 02:34:05;;;;;;;;;;;23.20;99.90;;;;;;5073264;28;19993;-68
2023/06/11 02:36:31;;;;;;;;;;;23.10;99.90;;;;;;5073057;28;19956;-68
2023/06/11 02:38:56;;;;;;;;;;;23.20;99.90;;;;;;5073188;28;19975;-68
2023/06/11 02:41:22;;;;;;;;;;;23.20;99.90;;;;;;5072960;28;20005;-68
2023/06/11 02:43:48;;;;;;;;;;;;;;;;;;5072760;28;20484;-69
2023/06/11 02:46:13;;;;;;;;;;;23.20;99.90;;;;;;5073421;28;20002;-68
2023/06/11 02:48:39;;;;;;;;;;;;;;;;;;5072866;28;19955;-69
2023/06/11 02:51:05;;;;;;;;;;;;;;;;;;5075398;28;19955;-69
2023/06/11 02:53:31;;;;;;;;;;;;;;;;;;5076687;28;20054;-68
2023/06/11 02:55:57;;;;;;;;;;;;;;;;;;5076385;28;20000;-69
2023/06/11 02:58:23;;;;;;;;;;;;;;;;;;5076295;28;20353;-69
2023/06/11 03:00:49;;;;;;;;;;;;;;;;;;5076271;28;19962;-69
2023/06/11 03:03:15;;;;;;;;;;;;;;;;;;5076611;28;19960;-69
2023/06/11 03:05:41;;;;;;;;;;;;;;;;;;5076268;28;20120;-69
2023/06/11 03:08:06;;;;;;;;;;;23.70;99.90;;;;;;5076206;28;19956;-68
2023/06/11 03:10:31;;;;;;;;;;;23.80;99.90;;;;;;5076149;28;20005;-69
2023/06/11 03:12:57;;;;;;;;;;;23.90;99.90;;;;;;5076381;28;20444;-68
2023/06/11 03:15:22;;;;;;;;;;;23.70;99.90;;;;;;5076030;28;19994;-69
2023/06/11 03:17:48;;;;;;;;;;;23.70;99.90;;;;;;5076761;28;20062;-69
2023/06/11 03:20:14;;;;;;;;;;;;;;;;;;5075988;28;19959;-69
2023/06/11 03:22:40;;;;;;;;;;;;;;;;;;5076221;28;19956;-68
2023/06/11 03:25:06;;;;;;;;;;;;;;;;;;5075903;28;20359;-68
2023/06/11 03:27:31;;;;;;;;;;;;;;;;;;5075882;28;19974;-69
2023/06/11 03:29:57;;;;;;;;;;;;;;;;;;5075792;28;19998;-68
2023/06/11 03:32:23;;;;;;;;;;;;;;;;;;5076306;28;19962;-68
2023/06/11 03:34:52;;;;;;;;;;;;;;;;;;5075961;28;19978;-69
2023/06/11 03:37:18;;;;;;;;;;;;;;;;;;5075602;28;19962;-68
2023/06/11 03:39:44;;;;;;;;;;;;;;;;;;5075895;28;19956;-69
2023/06/11 03:42:10;;;;;;;;;;;;;;;;;;5075883;28;20018;-68
2023/06/11 03:44:36;;;;;;;;;;;;;;;;;;5075384;28;20481;-68
2023/06/11 03:47:02;;;;;;;;;;;;;;;;;;5075754;28;20049;-68
2023/06/11 03:49:28;;;;;;;;;;;;;;;;;;5075430;28;19956;-69
2023/06/11 03:51:53;;;;;;;;;;;;;;;;;;5075618;28;19983;-69
2023/06/11 03:54:19;;;;;;;;;;;;;;;;;;5075553;28;19991;-69
2023/06/11 03:56:45;;;;;;;;;;;;;;;;;;5073942;28;19959;-68
2023/06/11 03:59:11;;;;;;;;;;;;;;;;;;5075687;28;20058;-68
2023/06/11 04:01:37;;;;;;;;;;;;;;;;;;5074893;28;19955;-68
2023/06/11 04:04:03;;;;;;;;;;;;;;;;;;5075712;28;20405;-68
2023/06/11 04:06:29;;;;;;;;;;;;;;;;;;5075063;28;20339;-68
2023/06/11 04:08:55;;;;;;;;;;;;;;;;;;5075024;28;20443;-69
2023/06/11 04:11:21;;;;;;;;;;;;;;;;;;5074944;28;20050;-68
2023/06/11 04:13:49;;;;;;;;;;;;;;;;;;5075206;28;19961;-69
2023/06/11 04:16:15;;;;;;;;;;;;;;;;;;5075250;28;20017;-68
2023/06/11 04:18:41;;;;;;;;;;;;;;;;;;5075556;28;20483;-69
2023/06/11 04:21:07;;;;;;;;;;;;;;;;;;5074790;28;19956;-69
2023/06/11 04:23:33;;;;;;;;;;;;;;;;;;5075268;28;20421;-69
2023/06/11 04:25:59;;;;;;;;;;;;;;;;;;5074648;28;19962;-69
2023/06/11 04:28:26;;;;;;;;;;;;;;;;;;5075218;28;20394;-69
2023/06/11 04:30:52;;;;;;;;;;;;;;;;;;5074860;28;20325;-69
2023/06/11 04:33:18;;;;;;;;;;;;;;;;;;5074544;28;20054;-69
2023/06/11 04:35:44;;;;;;;;;;;;;;;;;;5074426;28;20068;-69
2023/06/11 04:38:10;;;;;;;;;;;;;;;;;;5074930;28;19976;-69
2023/06/11 04:40:36;;;;;;;;;;;;;;;;;;5074453;28;20030;-69
2023/06/11 04:43:02;;;;;;;;;;;;;;;;;;5074202;28;20031;-68
2023/06/11 04:45:28;;;;;;;;;;;;;;;;;;5074544;28;20004;-68
2023/06/11 04:47:54;;;;;;;;;;;;;;;;;;5074527;28;19968;-69
2023/06/11 04:50:22;;;;;;;;;;;;;;;;;;5074768;28;19982;-69
2023/06/11 04:52:51;;;;;;;;;;;;;;;;;;5074197;28;19955;-69
2023/06/11 04:55:19;;;;;;;;;;;;;;;;;;5075032;28;20376;-69
2023/06/11 04:57:45;;;;;;;;;;;;;;;;;;5074058;28;19982;-69
2023/06/11 05:00:11;;;;;;;;;;;;;;;;;;5074051;28;19955;-68
2023/06/11 05:02:44;;;;;;;;;;;;;;;;;;5074542;28;20432;-69
2023/06/11 05:05:10;;;;;;;;;;;;;;;;;;5073986;28;20021;-69
2023/06/11 05:07:36;;;;;;;;;;;;;;;;;;5073894;28;20401;-69
2023/06/11 05:10:03;;;;;;;;;;;;;;;;;;5073913;28;19967;-69
2023/06/11 05:12:29;;;;;;;;;;;;;;;;;;5071918;28;20332;-69
2023/06/11 05:14:55;;;;;;;;;;;;;;;;;;5074376;28;19956;-69
2023/06/11 05:17:20;;;;;;;;;;;;;;;;;;5074344;28;19978;-69
2023/06/11 05:19:46;;;;;;;;;;;;;;;;;;5074351;28;20405;-69
2023/06/11 05:22:12;;;;;;;;;;;;;;;;;;5073851;28;19986;-69
2023/06/11 05:24:41;;;;;;;;;;;;;;;;;;5074293;28;20464;-69
2023/06/11 05:27:07;;;;;;;;;;;;;;;;;;5074042;28;20013;-69
2023/06/11 05:29:33;;;;;;;;;;;;;;;;;;5073985;28;19955;-69
2023/06/11 05:32:00;;;;;;;;;;;;;;;;;;5073680;28;19978;-69
2023/06/11 05:34:26;;;;;;;;;;;;;;;;;;5073610;28;19971;-69
2023/06/11 05:36:52;;;;;;;;;;;;;;;;;;5073874;28;19983;-69
2023/06/11 05:39:17;;;;;;;;;;;;;;;;;;5073472;28;19975;-68
2023/06/11 05:41:43;;;;;;;;;;;;;;;;;;5073511;28;20017;-68
2023/06/11 05:44:09;;;;;;;;;;;;;;;;;;5073245;28;19991;-69
2023/06/11 05:46:35;;;;;;;;;;;;;;;;;;5073475;28;19963;-69
2023/06/11 05:49:01;;;;;;;;;;;;;;;;;;5073459;28;19960;-68
2023/06/11 05:51:27;;;;;;;;;;;;;;;;;;5073742;28;19955;-69
2023/06/11 05:53:53;;;;;;;;;;;;;;;;;;5073714;28;20002;-69
2023/06/11 05:56:19;;;;;;;;;;;;;;;;;;5073416;28;20410;-69
2023/06/11 05:58:45;;;;;;;;;;;;;;;;;;5073329;28;20029;-69
2023/06/11 06:01:12;;;;;;;;;;;;;;;;;;5073883;28;19962;-69
2023/06/11 06:03:38;;;;;;;;;;;;;;;;;;5073400;28;19983;-69
2023/06/11 06:06:03;;;;;;;;;;;;;;;;;;5073614;28;19999;-69
2023/06/11 06:08:29;;;;;;;;;;;;;;;;;;5072015;28;19965;-69
2023/06/11 06:10:55;;;;;;;;;;;;;;;;;;5073564;28;20068;-69
2023/06/11 06:13:21;;;;;;;;;;;;;;;;;;5073214;28;20452;-69
2023/06/11 06:15:47;;;;;;;;;;;;;;;;;;5073238;28;19955;-69
2023/06/11 06:18:15;;;;;;;;;;;;;;;;;;5073968;28;19975;-69
2023/06/11 06:20:41;;;;;;;;;;;;;;;;;;5073205;28;19961;-69
2023/06/11 06:23:07;;;;;;;;;;;;;;;;;;5073458;28;19963;-69
2023/06/11 06:25:36;;;;;;;;;;;;;;;;;;5076316;28;19955;-69
2023/06/11 06:28:02;;;;;;;;;;;;;;;;;;5077290;28;20364;-69
2023/06/11 06:30:27;;;;;;;;;;;;;;;;;;5076861;28;19956;-69
2023/06/11 06:32:53;;;;;;;;;;;;;;;;;;5077143;28;19960;-70
2023/06/11 06:35:19;;;;;;;;;;;;;;;;;;5076867;28;20066;-69
2023/06/11 06:37:45;;;;;;;;;;;;;;;;;;5076731;28;20025;-69
2023/06/11 06:40:12;;;;;;;;;;;;;;;;;;5077500;28;20058;-70
2023/06/11 06:42:38;;;;;;;;;;;;;;;;;;5076261;28;20002;-69
2023/06/11 06:45:04;;;;;;;;;;;;;;;;;;5076893;28;19963;-70
2023/06/11 06:47:29;;;;;;;;;;;;;;;;;;5076475;28;20376;-69
2023/06/11 06:49:55;;;;;;;;;;;;;;;;;;5076817;28;19996;-69
2023/06/11 06:52:21;;;;;;;;;;;;;;;;;;5076481;28;19959;-69
2023/06/11 06:54:49;;;;;;;;;;;;;;;;;;5076744;28;20038;-69
2023/06/11 06:57:15;;;;;;;;;;;;;;;;;;5076419;28;19956;-69
2023/06/11 06:59:41;;;;;;;;;;;;;;;;;;5076352;28;19960;-69
2023/06/11 07:02:07;;;;;;;;;;;;;;;;;;5076920;28;20429;-69
2023/06/11 07:04:33;;;;;;;;;;;;;;;;;;5076590;28;19955;-69
2023/06/11 07:06:58;;;;;;;;;;;;;;;;;;5076255;28;20403;-69
2023/06/11 07:09:25;;;;;;;;;;;;;;;;;;5076231;28;19956;-70
2023/06/11 07:11:52;;;;;;;;;;;;;;;;;;5074935;28;20017;-69
2023/06/11 07:14:18;;;;;;;;;;;;;;;;;;5076170;28;20384;-69
2023/06/11 07:16:44;;;;;;;;;;;;;;;;;;5076082;28;19956;-69
2023/06/11 07:19:10;;;;;;;;;;;;;;;;;;5076779;28;20015;-69
2023/06/11 07:21:37;;;;;;;;;;;;;;;;;;5075872;28;20396;-69
2023/06/11 07:24:04;;;;;;;;;;;;;;;;;;5075861;28;19969;-69
2023/06/11 07:26:30;;;;;;;;;;;;;;;;;;5075898;28;19955;-69
2023/06/11 07:28:56;;;;;;;;;;;;;;;;;;5076100;28;20009;-69
2023/06/11 07:31:22;;;;;;;;;;;;;;;;;;5075783;28;19960;-69
2023/06/11 07:33:49;;;;;;;;;;;;;;;;;;5075899;28;20022;-69
2023/06/11 07:36:15;;;;;;;;;;;;;;;;;;5075158;28;20038;-69
2023/06/11 07:38:43;;;;;;;;;;;;;;;;;;5074311;28;20380;-69
2023/06/11 07:41:09;;;;;;;;;;;;;;;;;;5076187;28;20001;-69
2023/06/11 07:43:35;;;;;;;;;;;;;;;;;;5075401;28;20113;-69
2023/06/11 07:46:03;;;;;;;;;;;;;;;;;;5076056;28;20388;-69
2023/06/11 07:48:29;;;;;;;;;;;;;;;;;;5074211;28;19959;-69
2023/06/11 07:50:55;;;;;;;;;;;;;;;;;;5075434;28;19971;-69
2023/06/11 07:53:21;;;;;;;;;;;;;;;;;;5075947;28;19960;-69
2023/06/11 07:55:47;;;;;;;;;;;;;;;;;;5075346;28;20009;-70
2023/06/11 07:58:13;;;;;;;;;;;;;;;;;;5075511;28;19981;-69
2023/06/11 08:00:39;;;;;;;;;;;;;;;;;;5075203;28;19955;-69
2023/06/11 08:03:05;;;;;;;;;;;;;;;;;;5075513;28;19956;-69
2023/06/11 08:05:31;;;;;;;;;;;;;;;;;;5075106;28;20551;-69
2023/06/11 08:07:57;;;;;;;;;;;;;;;;;;5075066;28;19956;-70
2023/06/11 08:10:23;;;;;;;;;;;;;;;;;;5075002;28;19955;-69
2023/06/11 08:12:49;;;;;;;;;;;;;;;;;;5074944;28;19955;-69
2023/06/11 08:15:15;;;;;;;;;;;;;;;;;;5075156;28;19963;-69
2023/06/11 08:17:40;;;;;;;;;;;;;;;;;;5075308;28;19975;-69
2023/06/11 08:20:07;;;;;;;;;;;;;;;;;;5075320;28;19960;-70
2023/06/11 08:22:33;;;;;;;;;;;;;;;;;;5075061;28;19995;-70
2023/06/11 08:24:58;;;;;;;;;;;;;;;;;;5074816;28;20452;-70
2023/06/11 08:27:24;;;;;;;;;;;;;;;;;;5074687;28;19987;-70
2023/06/11 08:29:50;;;;;;;;;;;;;;;;;;5074353;28;19956;-70
2023/06/11 08:32:16;;;;;;;;;;;;;;;;;;5074459;28;20053;-70
2023/06/11 08:34:42;;;;;;;;;;;;;;;;;;5074349;28;19972;-70
2023/06/11 08:37:08;;;;;;;;;;;;;;;;;;5074324;28;20058;-70
2023/06/11 08:39:34;;;;;;;;;;;;;;;;;;5074559;28;20071;-69
2023/06/11 08:42:00;;;;;;;;;;;;;;;;;;5074074;28;19955;-70
2023/06/11 08:44:26;;;;;;;;;;;;;;;;;;5073900;28;20473;-69
2023/06/11 08:46:52;;;;;;;;;;;;;;;;;;5074364;28;19956;-69
2023/06/11 08:49:18;;;;;;;;;;;;;;;;;;5073832;28;20529;-69
2023/06/11 08:51:44;;;;;;;;;;;;;;;;;;5074151;28;20398;-70
2023/06/11 08:54:10;;;;;;;;;;;;;;;;;;5074029;28;20034;-69
2023/06/11 08:56:36;;;;;;;;;;;;;;;;;;5074121;28;20358;-69
2023/06/11 08:59:02;;;;;;;;;;;;;;;;;;5074019;28;19986;-69
2023/06/11 09:01:28;;;;;;;;;;;;;;;;;;5073979;28;19959;-69
2023/06/11 09:03:54;;;;;;;;;;;;;;;;;;5073963;28;20002;-70
2023/06/11 09:06:20;;;;;;;;;;;;;;;;;;5074194;28;19956;-70
2023/06/11 09:08:46;;;;;;;;;;;;;;;;;;5073841;28;20005;-70
2023/06/11 09:11:12;;;;;;;;;;;;;;;;;;5073862;28;19960;-70
2023/06/11 09:13:38;;;;;;;;;;;;;;;;;;5073813;28;19978;-70
2023/06/11 09:16:04;;;;;;;;;;;;;;;;;;5073775;28;19955;-70
2023/06/11 09:18:30;;;;;;;;;;;;;;;;;;5074186;28;19976;-70
2023/06/11 09:20:56;;;;;;;;;;;;;;;;;;5073733;28;20410;-70
2023/06/11 09:23:22;;;;;;;;;;;;;;;;;;5074009;28;19959;-69
2023/06/11 09:25:48;;;;;;;;;;;;;;;;;;5073652;28;19955;-69
2023/06/11 09:28:13;;;;;;;;;;;;;;;;;;5074227;28;20009;-70
2023/06/11 09:30:39;;;;;;;;;;;;;;;;;;5073783;28;20042;-70
2023/06/11 09:33:05;;;;;;;;;;;;;;;;;;5073396;28;20421;-70
2023/06/11 09:35:32;;;;;;;;;;;;;;;;;;5073437;28;19990;-69
2023/06/11 09:37:57;;;;;;;;;;;;;;;;;;5073786;28;20562;-70
2023/06/11 09:40:23;;;;;;;;;;;;;;;;;;5073504;28;19973;-70
2023/06/11 09:42:49;;;;;;;;;;;;;;;;;;5073346;28;19987;-69
2023/06/11 09:45:16;;;;;;;;;;;;;;;;;;5073994;28;20313;-70
2023/06/11 09:47:42;;;;;;;;;;;;;;;;;;5073414;28;20042;-70
2023/06/11 09:50:08;;;;;;;;;;;;;;;;;;5073901;28;20393;-69
2023/06/11 09:52:33;;;;;;;;;;;;;;;;;;5073633;28;19956;-70
2023/06/11 09:54:59;;;;;;;;;;;;;;;;;;5073598;28;20322;-70
2023/06/11 09:57:25;;;;;;;;;;;;;;;;;;5073557;28;19956;-70
2023/06/11 09:59:51;;;;;;;;;;;;;;;;;;5075479;28;19959;-69
2023/06/11 10:02:17;;;;;;;;;;;;;;;;;;5077950;28;19991;-69
2023/06/11 10:04:43;;;;;;;;;;;;;;;;;;5077616;28;20040;-69
2023/06/11 10:07:09;;;;;;;;;;;;;;;;;;5077804;28;19959;-70
2023/06/11 10:09:35;;;;;;;;;;;;;;;;;;5077242;28;20476;-69
2023/06/11 10:12:00;;;;;;;;;;;;;;;;;;5077266;28;19962;-69
2023/06/11 10:14:26;;;;;;;;;;;;;;;;;;5077799;28;20367;-69
2023/06/11 10:16:54;;;;;;;;;;;;;;;;;;5077479;28;19956;-69
2023/06/11 10:19:20;;;;;;;;;;;;;;;;;;5077667;28;19975;-69
2023/06/11 10:21:50;;;;;;;;;;;;;;;;;;5077043;28;20489;-70
2023/06/11 10:24:16;;;;;;;;;;;;;;;;;;5077629;28;20455;-69
2023/06/11 10:26:42;;;;;;;;;;;;;;;;;;5076947;28;19959;-69
2023/06/11 10:29:08;;;;;;;;;;;;;;;;;;5077198;28;19956;-69
2023/06/11 10:31:33;;;;;;;;;;;;;;;;;;5077067;28;19963;-69
2023/06/11 10:33:59;;;;;;;;;;;;;;;;;;5076783;28;19971;-69
2023/06/11 10:36:25;;;;;;;;;;;;;;;;;;5077813;28;19960;-69
2023/06/11 10:38:51;;;;;;;;;;;;;;;;;;5076944;28;20070;-69
2023/06/11 10:41:17;;;;;;;;;;;;;;;;;;5077204;28;20382;-70
2023/06/11 10:43:43;;;;;;;;;;;;;;;;;;5076384;28;20089;-70
2023/06/11 10:46:12;;;;;;;;;;;;;;;;;;5076602;28;19955;-70
2023/06/11 10:48:37;;;;;;;;;;;;;;;;;;5075308;28;20534;-70
2023/06/11 10:51:03;;;;;;;;;;;;;;;;;;5076495;28;20005;-69
2023/06/11 10:53:29;;;;;;;;;;;;;;;;;;5076722;28;19966;-70
2023/06/11 10:55:55;;;;;;;;;;;;;;;;;;5076342;28;19956;-69
2023/06/11 10:58:22;;;;;;;;;;;;;;;;;;5076774;28;19982;-70
2023/06/11 11:00:49;;;;;;;;;;;;;;;;;;5076259;28;19955;-70
2023/06/11 11:03:15;;;;;;;;;;;;;;;;;;5075062;28;19964;-70
2023/06/11 11:05:42;;;;;;;;;;;;;;;;;;5076266;28;19956;-70
2023/06/11 11:08:08;;;;;;;;;;;;;;;;;;5076443;28;19966;-69
2023/06/11 11:10:34;;;;;;;;;;;;;;;;;;5075510;28;19955;-69
2023/06/11 11:13:00;;;;;;;;;;;;;;;;;;5076047;28;19966;-70
2023/06/11 11:15:26;;;;;;;;;;;;;;;;;;5076124;28;19956;-69
2023/06/11 11:17:52;;;;;;;;;;;;;;;;;;5076801;28;19979;-69
2023/06/11 11:20:19;;;;;;;;;;;;;;;;;;5076290;28;19998;-69
2023/06/11 11:22:45;;;;;;;;;;;;;;;;;;5076638;28;19956;-70
2023/06/11 11:25:11;;;;;;;;;;;;;;;;;;5076259;28;19962;-70
2023/06/11 11:27:37;;;;;;;;;;;;;;;;;;5075887;28;20010;-69
2023/06/11 11:30:03;;;;;;;;;;;;;;;;;;5076482;28;20002;-69
2023/06/11 11:32:29;;;;;;;;;;;;;;;;;;5076053;28;19955;-70
2023/06/11 11:34:55;;;;;;;;;;;;;;;;;;5075705;28;20457;-70
2023/06/11 11:37:21;;;;;;;;;;;;;;;;;;5075661;28;20001;-69
2023/06/11 11:39:48;;;;;;;;;;;;;;;;;;5075914;28;20045;-69
2023/06/11 11:42:14;;;;;;;;;;;;;;;;;;5075718;28;19959;-70
2023/06/11 11:44:41;;;;;;;;;;;;;;;;;;5075870;28;19960;-69
2023/06/11 11:47:07;;;;;;;;;;;;;;;;;;5074260;28;19960;-69
2023/06/11 11:49:34;;;;;;;;;;;;;;;;;;5075719;28;20049;-70
2023/06/11 11:52:00;;;;;;;;;;;;;;;;;;5075468;28;19956;-69
2023/06/11 11:54:26;;;;;;;;;;;;;;;;;;5075440;28;20346;-69
2023/06/11 11:56:52;;;;;;;;;;;;;;;;;;5075858;28;19967;-70
2023/06/11 11:59:18;;;;;;;;;;;;;;;;;;5075137;28;19979;-69
2023/06/11 12:01:44;;;;;;;;;;;;;;;;;;5075807;28;20042;-69
2023/06/11 12:04:10;;;;;;;;;;;;;;;;;;5075189;28;20491;-69
2023/06/11 12:06:36;;;;;;;;;;;;;;;;;;5075172;28;19956;-70
2023/06/11 12:09:02;;;;;;;;;;;;;;;;;;5075441;28;19960;-70
2023/06/11 12:11:28;;;;;;;;;;;;;;;;;;5075035;28;20379;-70
2023/06/11 12:13:54;;;;;;;;;;;;;;;;;;5074982;28;19959;-69
2023/06/11 12:16:19;;;;;;;;;;;;;;;;;;5075073;28;20002;-69
2023/06/11 12:18:45;;;;;;;;;;;;;;;;;;5075365;28;19998;-70
2023/06/11 12:21:11;;;;;;;;;;;;;;;;;;5075436;28;19983;-70
2023/06/11 12:23:37;;;;;;;;;;;;;;;;;;5074691;28;20089;-69
2023/06/11 12:26:03;;;;;;;;;;;;;;;;;;5075321;28;20397;-69
2023/06/11 12:28:29;;;;;;;;;;;;;;;;;;5074983;28;19963;-70
2023/06/11 12:30:56;;;;;;;;;;;;;;;;;;5074867;28;20432;-69
2023/06/11 12:33:22;;;;;;;;;;;;;;;;;;5074716;28;19963;-70
2023/06/11 12:35:48;;;;;;;;;;;;;;;;;;5074802;28;19959;-70
2023/06/11 12:38:15;;;;;;;;;;;;;;;;;;5074717;28;20028;-70
2023/06/11 12:40:41;;;;;;;;;;;;;;;;;;5074492;28;19955;-69
2023/06/11 12:43:07;;;;;;;;;;;;;;;;;;5074406;28;20086;-69
2023/06/11 12:45:37;;;;;;;;;;;;;;;;;;5074636;28;19998;-70
2023/06/11 12:48:02;;;;;;;;;;;;;;;;;;5074588;28;19999;-69
2023/06/11 12:50:28;;;;;;;;;;;;;;;;;;5074236;28;19982;-70
2023/06/11 12:52:54;;;;;;;;;;;;;;;;;;5074236;28;19974;-70
2023/06/11 12:55:20;;;;;;;;;;;;;;;;;;5074258;28;19963;-69
2023/06/11 12:57:46;;;;;;;;;;;;;;;;;;5074090;28;19955;-70
2023/06/11 13:00:12;;;;;;;;;;;;;;;;;;5074675;28;20004;-70
2023/06/11 13:02:38;;;;;;;;;;;;;;;;;;5073989;28;19960;-70
2023/06/11 13:05:04;;;;;;;;;;;;;;;;;;5074037;28;20042;-69
2023/06/11 13:07:30;;;;;;;;;;;;;;;;;;5074579;28;19955;-69
2023/06/11 13:09:56;;;;;;;;;;;;;;;;;;5073967;28;19971;-69
2023/06/11 13:12:24;;;;;;;;;;;;;;;;;;5073897;28;20440;-69
2023/06/11 13:14:50;;;;;;;;;;;;;;;;;;5073935;28;19981;-70
2023/06/11 13:17:16;;;;;;;;;;;;;;;;;;5073862;28;20321;-70
2023/06/11 13:19:42;;;;;;;;;;;;;;;;;;5074273;28;19979;-70
2023/06/11 13:22:11;;;;;;;;;;;;;;;;;;5073948;28;19963;-69
2023/06/11 13:24:36;;;;;;;;;;;;;;;;;;5073688;28;19956;-70
2023/06/11 13:27:02;;;;;;;;;;;;;;;;;;5073958;28;19955;-70
2023/06/11 13:29:28;;;;;;;;;;;;;;;;;;5073699;28;19955;-70
2023/06/11 13:31:54;;;;;;;;;;;;;;;;;;5073891;28;20010;-70
2023/06/11 13:34:20;;;;;;;;;;;;;;;;;;5073292;28;19998;-70
2023/06/11 13:36:46;;;;;;;;;;;;;;;;;;5073656;28;19978;-69
2023/06/11 13:39:12;;;;;;;;;;;;;;;;;;5073577;28;19979;-70
2023/06/11 13:41:40;;;;;;;;;;;;;;;;;;5073898;28;19963;-70
2023/06/11 13:44:08;;;;;;;;;;;;;;;;;;5073240;28;20169;-70
2023/06/11 13:46:34;;;;;;;;;;;;;;;;;;5073509;28;20439;-70
2023/06/11 13:49:00;;;;;;;;;;;;;;;;;;5074073;28;19959;-70
2023/06/11 13:51:27;;;;;;;;;;;;;;;;;;5073449;28;19955;-70
2023/06/11 13:53:53;;;;;;;;;;;;;;;;;;5074046;28;19962;-70
2023/06/11 13:56:19;;;;;;;;;;;;;;;;;;5073749;28;19956;-70
2023/06/11 13:58:45;;;;;;;;;;;;;;;;;;5073295;28;19998;-70
2023/06/11 14:01:11;;;;;;;;;;;;;;;;;;5073288;28;19955;-70
2023/06/11 14:03:37;;;;;;;;;;;;;;;;;;5073661;28;20046;-70
2023/06/11 14:06:03;;;;;;;;;;;;;;;;;;5073376;28;19956;-69
2023/06/11 14:08:29;;;;;;;;;;;;;;;;;;5073620;28;19962;-70
2023/06/11 14:10:55;;;;;;;;;;;;;;;;;;5073295;28;19956;-70
2023/06/11 14:13:21;;;;;;;;;;;;;;;;;;5073195;28;20405;-70
2023/06/11 14:15:47;;;;;;;;;;;;;;;;;;5073207;28;19963;-69
2023/06/11 14:18:12;;;;;;;;;;;;;;;;;;5073888;28;19975;-70
2023/06/11 14:20:39;;;;;;;;;;;;;;;;;;5073370;28;19986;-70
2023/06/11 14:23:05;;;;;;;;;;;;;;;;;;5073201;28;20005;-70
2023/06/11 14:25:31;;;;;;;;;;;;;;;;;;5073243;28;19959;-70
2023/06/11 14:27:57;;;;;;;;;;;;;;;;;;5073129;28;20470;-70
2023/06/11 14:30:23;;;;;;;;;;;;;;;;;;5073445;28;20045;-70
2023/06/11 14:32:49;;;;;;;;;;;;;;;;;;5073157;28;19955;-70
2023/06/11 14:35:14;;;;;;;;;;;;;;;;;;5073066;28;20021;-70
2023/06/11 14:37:40;;;;;;;;;;;;;;;;;;5073313;28;19956;-70
2023/06/11 14:40:06;;;;;;;;;;;;;;;;;;5073031;28;19956;-70
2023/06/11 14:42:32;;;;;;;;;;;;;;;;;;5073042;28;20653;-70
2023/06/11 14:45:01;;;;;;;;;;;;;;;;;;5073594;28;19964;-69
2023/06/11 14:47:27;;;;;;;;;;;;;;;;;;5075814;28;20005;-70
2023/06/11 14:49:53;;;;;;;;;;;;;;;;;;5076578;28;19955;-70
2023/06/11 14:52:19;;;;;;;;;;;;;;;;;;5077126;28;19956;-70
2023/06/11 14:54:44;;;;;;;;;;;;;;;;;;5076770;28;19966;-70
2023/06/11 14:57:11;;;;;;;;;;;;;;;;;;5076767;28;19963;-70
2023/06/11 14:59:37;;;;;;;;;;;;;;;;;;5076398;28;20019;-70
2023/06/11 15:02:03;;;;;;;;;;;;;;;;;;5076408;28;20052;-70
2023/06/11 15:04:29;;;;;;;;;;;;;;;;;;5076323;28;19970;-70
2023/06/11 15:06:55;;;;;;;;;;;;;;;;;;5076336;28;20054;-70
2023/06/11 15:09:22;;;;;;;;;;;;;;;;;;5076260;28;19982;-70
2023/06/11 15:11:48;;;;;;;;;;;;;;;;;;5076629;28;19956;-70
2023/06/11 15:14:14;;;;;;;;;;;;;;;;;;5076476;28;20463;-69
2023/06/11 15:16:40;;;;;;;;;;;;;;;;;;5076758;28;19998;-70
2023/06/11 15:19:06;;;;;;;;;;;;;;;;;;5076491;28;20026;-70
2023/06/11 15:21:32;;;;;;;;;;;;;;;;;;5076034;28;19960;-70
2023/06/11 15:23:58;;;;;;;;;;;;;;;;;;5075982;28;19959;-70
2023/06/11 15:26:23;;;;;;;;;;;;;;;;;;5075988;28;19955;-70
2023/06/11 15:28:49;;;;;;;;;;;;;;;;;;5076147;28;19963;-69
2023/06/11 15:31:15;;;;;;;;;;;;;;;;;;5076153;28;20003;-70
2023/06/11 15:33:41;;;;;;;;;;;;;;;;;;5076247;28;20121;-70
2023/06/11 15:36:07;;;;;;;;;;;;;;;;;;5075805;28;20298;-69
2023/06/11 15:38:33;;;;;;;;;;;;;;;;;;5075913;28;19975;-69
2023/06/11 15:40:59;;;;;;;;;;;;;;;;;;5075657;28;19955;-70
2023/06/11 15:43:25;;;;;;;;;;;;;;;;;;5075464;28;19991;-69
2023/06/11 15:45:51;;;;;;;;;;;;;;;;;;5075583;28;20005;-69
2023/06/11 15:48:17;;;;;;;;;;;;;;;;;;5075829;28;20437;-70
2023/06/11 15:50:43;;;;;;;;;;;;;;;;;;5075519;28;20047;-69
2023/06/11 15:53:08;;;;;;;;;;;;;;;;;;5075759;28;19956;-70
2023/06/11 15:55:34;;;;;;;;;;;;;;;;;;5075640;28;20428;-69
2023/06/11 15:58:00;;;;;;;;;;;;;;;;;;5075409;28;19975;-69
2023/06/11 16:00:26;;;;;;;;;;;;;;;;;;5075286;28;19955;-70
2023/06/11 16:02:52;;;;;;;;;;;;;;;;;;5075270;28;20307;-70
2023/06/11 16:05:18;;;;;;;;;;;;;;;;;;5075219;28;19963;-70
2023/06/11 16:07:44;;;;;;;;;;;;;;;;;;5075418;28;19955;-70